Date,TemperatureHighF,TemperatureAvgF,TemperatureLowF,DewpointHighF,DewpointAvgF,DewpointLowF,HumidityHigh,HumidityAvg,HumidityLow,PressureMaxIn,PressureMinIn,WindSpeedMaxMPH,WindSpeedAvgMPH,GustSpeedMaxMPH,PrecipitationSumIn
2013-1-1,47.7,41.2,35.0,40.5,32.9,27.4,93,75,56,30.26,30.19,11,2,23,0.00
2013-1-2,50.7,44.1,39.2,34.0,30.0,26.6,71,60,49,30.24,30.13,12,6,19,0.00
2013-1-3,51.0,45.7,41.5,41.7,33.9,26.7,81,66,49,30.25,30.14,11,4,19,0.00
2013-1-4,51.2,46.6,43.0,37.1,33.0,27.7,76,62,54,30.28,30.18,12,4,18,0.00
2013-1-5,49.5,46.1,40.1,45.8,43.9,39.7,99,93,85,30.25,30.07,6,1,12,0.42
2013-1-6,45.1,41.7,39.3,43.2,40.8,38.8,100,98,89,30.18,30.06,10,2,17,0.04
2013-1-7,55.3,47.3,41.7,48.3,43.4,38.6,98,87,76,30.27,30.15,7,2,13,0.00
2013-1-8,56.3,49.6,43.9,48.1,43.4,39.4,93,81,64,30.25,30.13,6,2,11,0.00
2013-1-9,49.8,44.4,38.7,46.4,40.8,34.8,99,89,71,30.15,29.99,17,4,31,0.01
2013-1-10,45.2,38.7,36.0,34.9,32.4,30.0,91,80,59,30.16,30.05,13,7,24,0.00
2013-1-11,46.3,40.2,36.9,40.1,33.3,28.6,95,79,67,30.25,30.11,15,6,25,0.00
2013-1-12,44.7,39.5,35.2,34.6,27.3,22.3,87,64,46,30.25,30.12,7,2,14,0.00
2013-1-13,45.5,38.1,31.5,26.1,20.8,15.4,68,50,36,30.24,30.15,9,3,20,0.00
2013-1-14,46.2,38.6,31.8,23.9,18.8,15.6,53,44,35,30.37,30.19,10,3,22,0.00
2013-1-15,50.2,42.4,37.0,29.3,25.8,22.2,71,54,44,30.46,30.36,5,2,14,0.00
2013-1-16,53.0,44.9,37.2,35.3,29.9,23.9,77,59,40,30.40,30.24,8,3,16,0.00
2013-1-17,57.1,50.7,43.3,32.2,28.5,23.2,66,45,32,30.27,30.16,11,6,20,0.00
2013-1-18,58.0,51.8,45.4,35.4,29.8,21.0,70,46,29,30.26,30.15,13,6,22,0.00
2013-1-19,55.7,52.9,49.2,35.9,27.1,19.8,52,39,27,30.27,30.16,10,5,19,0.00
2013-1-20,57.2,54.0,48.4,32.3,25.9,19.1,48,36,24,30.25,30.14,11,6,21,0.00
2013-1-21,58.7,53.0,46.5,39.6,30.2,18.3,68,45,23,30.21,30.09,13,5,25,0.00
2013-1-22,60.8,52.6,46.8,43.2,37.6,29.4,69,59,37,30.14,30.02,17,5,25,0.00
2013-1-23,58.0,52.1,45.5,50.1,41.2,30.4,99,72,38,30.10,29.96,11,2,18,0.14
2013-1-24,55.1,50.3,45.5,51.3,49.0,45.2,100,95,85,30.20,30.06,7,2,17,0.01
2013-1-25,60.8,54.5,50.6,55.6,52.1,50.0,99,92,78,30.21,30.06,10,3,16,0.00
2013-1-26,52.7,47.5,41.8,51.3,43.9,35.7,100,89,60,30.08,30.00,14,6,22,0.00
2013-1-27,50.8,42.9,37.5,39.4,35.6,29.3,93,79,49,30.17,30.06,12,5,19,0.00
2013-1-28,53.4,44.3,39.5,42.3,37.5,33.0,91,79,58,30.27,30.14,12,6,21,0.00
2013-1-29,56.3,47.6,40.2,43.1,39.3,35.9,88,75,54,30.36,30.26,10,4,20,0.00
2013-1-30,63.1,54.2,49.0,47.4,41.9,38.3,76,65,51,30.37,30.26,8,1,14,0.00
2013-1-31,63.7,52.7,45.6,49.4,43.7,39.3,86,73,58,30.32,30.18,13,3,18,0.00
2013-2-1,61.0,53.7,47.3,47.7,43.8,40.3,87,71,57,30.25,30.14,11,4,20,0.00
2013-2-2,61.2,50.8,44.6,51.5,46.6,42.4,98,86,66,30.32,30.22,5,1,8,0.00
2013-2-3,54.7,46.6,41.4,46.9,43.1,39.4,98,89,74,30.28,30.14,10,2,15,0.01
2013-2-4,57.6,47.1,40.7,51.9,45.1,40.0,100,93,78,30.20,30.07,6,1,9,0.01
2013-2-5,50.4,44.5,41.0,47.3,43.1,40.2,100,95,87,30.14,30.06,10,4,16,0.00
2013-2-6,52.7,45.0,40.0,44.9,40.5,36.9,100,86,67,30.23,30.12,8,3,15,0.01
2013-2-7,48.9,43.6,38.8,45.5,40.4,31.8,99,90,58,30.18,29.98,14,3,22,0.15
2013-2-8,47.7,42.3,36.9,40.7,36.4,24.8,99,83,46,30.05,29.93,10,3,16,0.04
2013-2-9,54.6,46.2,41.7,33.5,28.1,23.7,62,52,39,30.10,29.98,8,2,18,0.00
2013-2-10,56.8,47.7,41.6,41.0,32.4,23.3,79,58,43,30.13,30.02,5,1,11,0.00
2013-2-11,60.1,50.7,44.9,38.7,29.8,23.0,72,48,35,30.23,30.07,11,2,17,0.00
2013-2-12,57.8,50.6,43.4,44.6,36.7,32.4,76,62,41,30.38,30.18,6,1,9,0.00
2013-2-13,58.3,50.9,44.9,47.6,39.5,35.3,85,67,51,30.36,30.21,7,2,12,0.00
2013-2-14,65.4,56.2,48.4,45.5,41.0,37.4,74,59,47,30.27,30.17,12,3,20,0.00
2013-2-15,66.7,59.0,53.0,45.5,39.0,33.8,61,49,37,30.31,30.21,10,4,18,0.00
2013-2-16,66.4,57.1,50.2,50.3,45.3,41.1,83,66,50,30.24,30.06,12,4,20,0.00
2013-2-17,56.5,48.8,42.5,48.3,42.5,35.0,98,81,60,30.09,29.98,7,2,12,0.00
2013-2-18,46.0,43.2,41.1,42.6,39.7,35.4,98,89,76,30.04,29.95,16,7,29,0.00
2013-2-19,42.1,39.8,36.1,41.7,36.8,31.8,99,91,77,29.95,29.74,16,6,28,0.36
2013-2-20,53.0,43.3,35.2,40.1,34.9,30.1,91,75,56,30.05,29.82,11,4,18,0.00
2013-2-21,55.0,46.1,38.8,38.0,34.5,30.1,92,67,45,30.18,30.04,10,3,19,0.00
2013-2-22,55.8,47.7,42.3,42.6,38.8,32.6,94,74,52,30.28,30.16,11,2,21,0.00
2013-2-23,53.9,46.5,41.9,45.2,36.9,25.3,99,73,46,30.27,30.16,13,6,23,0.00
2013-2-24,59.8,49.4,42.6,34.6,26.2,23.0,64,43,26,30.27,30.17,13,3,28,0.00
2013-2-25,60.5,49.1,41.8,45.3,40.7,35.4,97,75,52,30.28,30.17,7,2,16,0.00
2013-2-26,64.0,53.0,44.3,40.3,31.7,24.6,78,48,26,30.23,30.15,8,2,14,0.00
2013-2-27,58.4,52.8,48.3,44.7,33.8,23.0,84,53,31,30.35,30.20,10,2,16,0.00
2013-2-28,61.7,53.6,47.0,53.2,48.3,43.1,90,83,71,30.49,30.35,8,2,14,0.00
2013-3-1,70.5,59.8,52.2,52.1,48.5,43.9,90,68,49,30.43,30.25,6,1,13,0.00
2013-3-2,68.4,58.8,50.9,55.5,49.0,43.4,89,71,58,30.26,30.09,6,1,11,0.00
2013-3-3,58.8,49.1,43.5,50.1,46.3,42.8,100,91,68,30.14,30.04,10,4,17,0.00
2013-3-4,48.0,43.0,40.7,47.1,42.4,39.9,100,98,90,30.16,30.05,7,3,11,0.00
2013-3-5,53.1,45.1,39.2,43.9,41.4,38.2,99,89,68,30.06,29.84,11,3,19,0.01
2013-3-6,51.0,45.3,41.6,46.3,41.9,38.5,100,90,67,30.09,29.85,14,4,25,0.48
2013-3-7,52.8,45.4,39.9,43.0,40.4,36.7,99,85,58,29.99,29.86,6,1,11,0.05
2013-3-8,53.6,46.4,41.8,44.7,39.3,33.4,96,79,63,30.04,29.84,14,5,26,0.00
2013-3-9,61.2,50.8,40.4,45.8,40.2,34.8,96,71,45,30.31,30.04,8,2,14,0.01
2013-3-10,62.8,55.9,48.0,46.8,36.3,26.5,70,50,36,30.37,30.26,8,2,11,0.00
2013-3-11,67.4,57.6,50.0,50.1,35.6,22.8,64,46,32,30.27,30.11,10,2,14,0.00
2013-3-12,71.0,60.1,50.5,55.7,47.0,36.1,81,63,46,30.19,30.09,6,1,10,0.00
2013-3-13,75.6,64.8,55.7,58.2,51.5,44.2,78,62,49,30.20,30.09,8,2,12,0.00
2013-3-14,65.7,59.8,52.4,56.2,49.7,38.0,86,70,48,30.20,30.10,9,2,16,0.00
2013-3-15,65.9,56.3,48.7,53.2,46.2,38.0,92,70,52,30.17,30.06,7,2,12,0.00
2013-3-16,64.9,54.4,44.4,51.8,46.1,42.2,98,76,52,30.15,30.04,14,4,20,0.00
2013-3-17,60.9,52.0,45.0,46.1,42.4,38.0,93,72,56,30.18,30.06,13,3,24,0.00
2013-3-18,59.9,51.0,44.5,50.2,44.3,38.9,94,79,68,30.14,30.05,7,2,10,0.00
2013-3-19,62.1,51.8,43.3,48.9,41.9,33.3,97,72,48,30.14,30.06,10,2,14,0.08
2013-3-20,56.0,50.8,46.6,52.9,49.4,44.3,100,95,78,30.13,30.07,10,3,18,0.10
2013-3-21,58.0,48.3,38.6,49.8,43.7,38.4,100,86,65,30.15,30.03,9,3,18,0.01
2013-3-22,63.5,54.4,48.2,42.3,29.9,18.0,79,42,25,30.14,30.04,13,5,23,0.00
2013-3-23,62.4,54.6,47.0,38.8,29.0,21.5,52,40,30,30.17,30.06,8,3,14,0.00
2013-3-24,63.3,52.7,44.7,50.9,42.7,29.9,95,71,46,30.12,29.99,9,2,13,0.00
2013-3-25,52.8,45.9,42.5,45.5,43.1,41.8,99,91,75,30.05,29.92,13,4,21,0.00
2013-3-26,47.1,45.4,43.1,44.4,43.2,41.8,98,93,90,30.03,29.97,9,5,15,0.00
2013-3-27,55.9,50.0,44.5,52.3,48.1,42.5,100,94,83,30.03,29.95,8,2,14,0.00
2013-3-28,59.9,53.6,50.0,58.3,52.9,49.3,100,97,84,30.13,30.02,6,2,11,0.09
2013-3-29,71.4,58.2,50.8,57.6,51.0,47.1,94,78,56,30.13,30.04,12,3,18,0.00
2013-3-30,56.3,51.8,48.8,51.8,49.6,48.1,100,92,80,30.08,30.04,8,4,13,0.00
2013-4-1,56.8,50.7,47.9,50.3,48.1,47.3,98,91,78,30.16,30.14,8,4,15,0.73
2013-4-2,62.0,51.7,45.8,55.6,49.8,45.5,100,93,76,30.22,30.10,9,3,14,0.01
2013-4-3,70.3,54.0,44.9,60.0,50.4,44.6,100,88,66,30.16,30.01,8,2,15,0.01
2013-4-4,56.5,51.7,47.4,56.3,51.6,46.7,100,99,95,30.13,30.00,10,3,15,0.49
2013-4-5,54.7,51.5,49.0,54.0,50.9,49.1,100,98,85,30.23,30.13,10,4,18,0.08
2013-4-6,53.8,50.9,48.1,54.0,51.0,48.1,100,100,98,30.22,30.15,9,3,14,0.02
2013-4-7,55.7,49.9,47.1,53.1,49.1,45.3,100,97,87,30.18,29.85,19,7,37,0.08
2013-4-8,63.9,50.3,41.5,47.3,39.3,28.1,100,71,28,29.98,29.81,23,10,41,0.01
2013-4-9,72.6,63.0,50.2,43.4,33.3,27.2,70,37,20,30.12,29.97,12,5,30,0.00
2013-4-10,75.8,66.8,55.9,55.7,46.2,35.0,81,50,34,30.23,30.06,13,5,23,0.00
2013-4-11,66.5,55.8,46.3,51.4,47.7,43.9,94,76,52,30.08,29.87,15,4,23,0.00
2013-4-12,68.2,54.3,46.3,54.6,46.9,42.5,93,78,48,29.96,29.86,9,2,15,0.00
2013-4-13,64.4,52.1,44.1,50.9,45.4,39.7,99,80,55,29.94,29.85,10,3,15,0.00
2013-4-14,62.3,50.7,43.7,45.3,39.8,30.8,98,70,44,29.96,29.87,20,7,34,0.00
2013-4-15,54.1,45.7,40.6,44.9,39.3,33.4,100,82,51,29.95,29.86,22,8,39,0.00
2013-4-16,61.3,50.4,40.3,39.6,33.3,29.7,75,56,38,30.14,29.95,12,4,24,0.00
2013-4-17,66.8,57.5,48.2,41.4,29.1,22.4,57,37,21,30.29,30.17,14,4,28,0.00
2013-4-18,68.7,60.9,55.3,45.2,33.8,23.2,50,38,27,30.30,30.20,12,4,16,0.00
2013-4-19,72.2,62.0,54.4,55.6,45.2,33.6,67,55,37,30.26,30.09,12,3,20,0.00
2013-4-20,72.3,62.8,54.1,48.8,42.9,36.7,70,50,33,30.14,30.02,12,3,18,0.00
2013-4-21,77.5,68.8,58.2,52.6,43.7,33.5,54,41,25,30.10,29.97,8,2,11,0.00
2013-4-22,80.0,71.1,64.0,53.5,44.5,32.5,51,40,24,30.03,29.90,8,3,13,0.00
2013-4-23,73.9,61.7,45.0,53.0,38.2,25.6,97,49,20,30.00,29.89,9,4,19,0.00
2013-4-24,59.7,51.4,45.1,49.4,45.7,35.8,100,83,43,29.96,29.85,14,6,23,0.00
2013-4-25,56.4,50.1,46.9,50.6,48.1,45.8,100,93,79,30.13,29.96,15,8,25,0.00
2013-4-26,61.9,50.9,45.4,53.3,47.8,44.8,99,90,71,30.25,30.13,10,4,15,0.00
2013-4-27,68.8,53.7,44.3,57.2,49.3,44.2,100,86,63,30.25,30.09,6,3,9,0.00
2013-4-28,80.3,63.0,45.5,60.5,52.0,44.0,99,70,40,30.09,29.93,6,2,9,0.00
2013-4-29,78.2,70.7,58.2,58.0,51.9,48.5,75,52,37,29.96,29.81,10,3,16,0.00
2013-4-30,73.8,63.8,53.9,53.9,46.6,23.9,85,58,20,29.91,29.82,11,3,15,0.00
2013-5-1,80.9,70.8,58.3,36.4,26.1,18.2,29,20,14,30.11,29.87,14,3,28,0.00
2013-5-2,85.3,73.2,64.0,40.0,26.7,19.2,23,19,15,30.21,30.11,8,3,18,0.00
2013-5-3,77.1,69.3,64.7,47.0,29.3,23.8,39,24,20,30.12,29.84,6,1,10,0.00
2013-5-4,75.2,63.5,49.7,53.0,42.3,29.1,98,53,26,29.84,29.62,16,4,28,0.00
2013-5-5,61.0,55.1,49.3,51.9,48.9,46.6,95,80,65,29.84,29.63,8,1,12,0.00
2013-5-6,63.1,56.5,51.7,53.1,50.9,48.2,95,82,64,29.99,29.84,10,3,16,0.00
2013-5-7,64.2,55.7,50.5,55.0,51.9,49.7,99,88,61,30.08,29.98,11,5,19,0.00
2013-5-8,58.5,50.9,48.5,52.9,49.7,47.8,100,96,79,30.15,30.05,11,5,18,0.00
2013-5-9,59.1,51.5,47.0,52.8,49.1,46.7,100,92,77,30.19,30.11,12,5,18,0.00
2013-5-10,62.7,52.5,46.9,56.1,50.5,46.6,100,93,76,30.22,30.13,10,4,14,0.00
2013-5-11,81.3,60.2,47.3,61.5,53.8,47.3,100,82,43,30.17,30.08,6,1,8,0.00
2013-5-12,73.2,63.2,53.3,61.1,54.1,45.6,90,73,52,30.19,30.08,8,3,11,0.00
2013-5-13,71.2,64.2,55.8,59.8,55.6,50.1,86,74,65,30.11,29.98,15,2,12,0.00
2013-5-14,64.2,55.3,47.4,54.1,50.0,45.0,98,83,65,30.02,29.94,4,1,15,0.00
2013-5-15,63.4,53.0,46.4,52.9,48.4,44.9,96,85,67,30.08,30.00,5,1,18,0.00
2013-5-16,60.7,53.9,49.0,55.5,51.1,47.9,99,91,72,30.07,29.98,7,2,22,0.00
2013-5-17,61.0,52.2,46.7,51.4,47.6,45.4,99,86,60,30.08,29.98,6,2,23,0.00
2013-5-18,70.3,56.6,45.9,54.5,49.7,45.0,99,80,51,30.16,30.07,8,3,15,0.01
2013-5-19,72.8,63.3,51.5,55.2,48.0,42.5,88,60,36,30.15,30.01,10,3,19,0.00
2013-5-20,77.6,68.7,49.3,56.3,44.6,36.0,93,45,31,30.06,29.95,10,4,20,0.00
2013-5-21,64.5,54.4,46.7,51.5,46.5,40.6,98,77,53,30.03,29.93,18,6,31,0.00
2013-5-22,60.3,50.6,42.7,42.8,36.4,27.0,84,62,36,30.03,29.91,12,7,24,0.00
2013-5-23,62.1,51.8,42.5,46.7,42.4,39.0,91,73,48,30.02,29.91,9,4,20,0.00
2013-5-24,63.4,53.1,45.5,47.3,44.3,41.7,93,75,49,30.03,29.96,9,3,18,0.00
2013-5-25,61.0,51.9,44.7,50.3,46.9,43.4,98,84,65,30.05,29.96,8,3,16,0.00
2013-5-26,61.1,53.4,48.5,54.3,50.8,47.5,100,91,75,30.14,30.05,13,6,21,0.00
2013-5-27,57.5,52.2,47.6,54.9,51.5,47.3,100,97,85,30.14,30.01,10,4,18,0.04
2013-5-28,64.8,56.6,52.6,59.8,54.3,49.9,100,92,71,30.04,29.94,9,4,16,0.04
2013-5-29,66.4,56.3,50.6,56.8,51.8,46.9,98,86,61,30.01,29.94,11,5,18,0.00
2013-5-30,70.0,58.0,47.9,53.1,49.1,46.4,96,74,49,30.03,29.95,8,2,14,0.00
2013-5-31,78.7,65.6,53.3,57.7,49.8,45.1,78,59,34,30.07,29.95,9,2,15,0.00
2013-6-1,84.3,71.5,58.2,59.2,51.7,46.6,69,51,28,29.97,29.82,7,3,13,0.00
2013-6-2,71.7,61.1,49.8,56.5,51.5,47.6,95,71,55,29.82,29.72,9,3,15,0.00
2013-6-3,58.6,53.1,49.6,54.0,50.8,48.4,100,92,80,29.87,29.74,16,7,28,0.00
2013-6-4,56.8,51.5,49.1,54.2,50.8,49.2,100,97,87,29.98,29.86,14,9,22,0.00
2013-6-5,60.5,52.2,48.1,53.9,50.4,48.1,100,94,78,30.02,29.95,12,8,21,0.00
2013-6-6,65.8,53.4,47.0,57.0,50.9,46.7,100,92,68,29.98,29.89,9,4,14,0.01
2013-6-7,87.2,67.4,49.2,65.0,55.4,44.4,100,72,25,29.91,29.79,6,2,11,0.00
2013-6-8,84.5,68.2,52.9,64.3,57.0,52.4,100,70,43,29.84,29.77,17,5,28,0.00
2013-6-9,56.4,53.4,52.3,56.5,53.4,52.4,100,99,95,29.91,29.83,16,11,29,0.00
2013-6-10,64.8,55.3,51.1,55.5,52.5,50.3,100,91,69,29.99,29.83,15,7,24,0.00
2013-6-11,66.2,57.2,50.9,56.9,53.1,49.2,100,87,67,30.03,29.93,9,3,15,0.00
2013-6-12,67.9,56.5,49.6,54.1,49.7,46.7,96,79,58,30.02,29.93,8,2,15,0.00
2013-6-13,73.6,62.5,50.0,53.7,49.0,43.6,81,63,40,30.13,30.02,8,3,16,0.00
2013-6-14,74.7,66.4,53.3,57.2,47.8,39.7,84,53,37,30.02,29.87,9,3,15,0.00
2013-6-15,55.3,52.1,48.1,47.3,46.4,44.2,97,82,69,29.87,29.85,4,1,5,0.00
2013-6-16,64.7,58.0,53.6,52.9,51.1,49.2,87,78,64,30.10,30.08,7,4,13,0.00
2013-6-17,69.1,57.5,49.3,58.6,52.9,48.3,100,85,67,30.13,30.04,10,3,17,0.00
2013-6-18,62.9,55.1,49.9,54.3,51.5,48.7,99,88,71,30.07,29.99,13,6,24,0.00
2013-6-19,68.1,57.2,48.9,52.5,48.5,45.6,93,74,54,30.09,30.01,12,6,24,0.00
2013-6-20,72.2,59.6,50.3,52.8,49.4,46.7,90,71,42,30.03,29.98,9,3,17,0.00
2013-6-21,72.5,61.9,52.4,56.4,50.3,45.0,85,67,44,30.03,29.94,8,2,15,0.00
2013-6-22,77.7,64.6,55.6,58.3,51.7,46.9,88,64,38,29.99,29.88,11,3,16,0.00
2013-6-23,59.0,55.3,51.8,59.1,55.4,51.4,100,99,90,29.92,29.85,9,4,16,0.00
2013-6-24,58.0,55.1,52.1,58.1,55.3,52.2,100,100,100,29.94,29.82,6,2,12,0.04
2013-6-25,64.4,60.2,56.8,64.2,60.2,57.0,100,100,100,30.03,29.92,6,2,13,0.24
2013-6-26,72.6,63.9,59.3,67.8,61.5,59.1,100,93,74,30.11,30.01,11,4,18,0.02
2013-6-27,80.9,69.7,58.9,65.2,60.8,55.9,100,76,50,30.14,30.06,10,3,15,0.01
2013-6-28,91.4,78.7,68.3,67.0,60.1,52.6,73,54,35,30.07,29.96,8,3,14,0.00
2013-6-29,90.4,80.5,72.3,65.6,56.9,50.3,57,44,34,29.98,29.86,8,3,17,0.00
2013-6-30,83.0,73.0,63.7,63.8,58.6,52.8,78,61,51,29.91,29.82,5,2,11,0.00
2013-7-1,86.1,75.3,61.3,65.3,58.9,54.4,83,58,39,29.92,29.83,9,2,16,0.00
2013-7-2,83.5,69.8,55.2,64.7,58.9,55.0,99,69,48,29.96,29.86,10,4,16,0.00
2013-7-3,85.8,70.7,54.9,65.1,59.0,54.8,100,69,40,29.95,29.82,8,3,14,0.00
2013-7-4,84.4,74.3,65.8,65.1,59.3,50.6,77,60,46,29.86,29.74,7,2,13,0.00
2013-7-5,66.0,55.8,50.9,55.5,52.2,50.1,99,88,60,29.84,29.75,10,4,20,0.00
2013-7-6,63.8,55.4,51.0,56.3,52.8,50.8,100,91,75,29.86,29.78,12,6,21,0.00
2013-7-7,67.0,56.0,50.9,58.0,53.5,51.0,100,92,71,29.89,29.81,11,7,18,0.00
2013-7-8,70.6,59.9,50.9,59.8,54.8,51.0,100,84,63,30.00,29.88,10,6,18,0.00
2013-7-9,85.2,70.4,56.2,63.2,56.3,46.8,93,64,30,30.07,29.97,7,2,12,0.00
2013-7-10,73.0,58.0,50.3,58.8,53.2,48.8,100,85,58,30.02,29.93,10,5,16,0.00
2013-7-11,63.1,53.6,49.0,60.3,51.9,49.1,100,94,74,29.99,29.91,11,6,19,0.00
2013-7-12,65.3,56.8,50.3,56.2,52.5,48.8,100,86,64,29.99,29.91,10,5,18,0.00
2013-7-13,74.4,60.5,50.4,58.1,52.6,45.6,99,77,43,30.02,29.92,9,3,15,0.00
2013-7-14,67.7,56.3,50.1,56.7,52.3,46.2,100,87,66,30.04,29.93,8,5,14,0.00
2013-7-15,61.0,52.4,48.2,58.0,51.5,48.2,100,96,82,29.96,29.87,12,8,22,0.00
2013-7-16,60.9,54.0,50.6,56.2,52.7,50.1,100,95,82,30.05,29.88,14,7,22,0.00
2013-7-17,66.8,57.1,51.7,59.2,54.7,51.8,100,92,74,30.14,30.04,9,4,15,0.00
2013-7-18,73.5,58.7,50.4,60.6,54.4,50.5,100,87,53,30.09,29.97,7,3,12,0.00
2013-7-19,75.2,58.7,50.4,61.1,54.7,50.5,100,88,60,29.99,29.87,8,3,11,0.00
2013-7-20,73.3,57.5,50.3,60.3,53.9,50.4,100,89,61,29.90,29.79,7,4,12,0.00
2013-7-21,70.2,56.2,50.2,59.4,53.3,50.3,100,91,64,29.91,29.80,10,6,15,0.00
2013-7-22,64.7,57.8,51.2,64.5,56.3,51.3,100,95,74,30.00,29.90,11,4,18,0.00
2013-7-23,70.3,61.1,54.6,62.0,56.6,53.7,97,85,71,30.06,29.97,9,5,17,0.00
2013-7-24,75.0,63.6,55.5,60.6,56.4,51.6,96,78,57,30.04,29.95,8,3,13,0.00
2013-7-25,71.4,59.5,51.3,58.0,53.8,50.6,100,82,57,30.05,29.95,9,4,16,0.00
2013-7-26,68.4,56.7,50.7,59.8,54.4,50.8,100,92,71,30.14,30.03,10,6,16,0.00
2013-7-27,63.3,54.7,51.3,61.4,54.1,51.4,100,98,81,30.05,29.90,10,7,18,0.00
2013-7-28,59.5,53.6,51.1,58.7,53.5,51.2,100,99,89,29.92,29.84,13,8,20,0.00
2013-7-29,61.8,54.4,50.9,56.8,53.1,51.0,100,95,81,30.03,29.86,13,8,24,0.00
2013-7-30,62.9,54.9,51.0,57.5,53.3,51.1,100,94,80,30.14,30.03,12,7,20,0.00
2013-7-31,65.2,55.6,49.9,57.7,53.1,50.0,100,92,74,30.13,30.04,10,5,16,0.00
2013-8-1,65.0,56.3,51.1,56.6,53.2,51.2,100,90,71,30.12,29.99,11,4,19,0.00
2013-8-2,68.7,57.9,51.3,58.4,53.8,51.0,100,87,66,30.03,29.94,9,3,15,0.00
2013-8-3,64.3,55.6,50.4,57.5,53.4,50.5,100,93,76,30.03,29.94,10,5,16,0.00
2013-8-4,62.8,53.7,49.9,60.0,52.7,50.0,100,96,78,30.05,29.98,11,6,18,0.00
2013-8-5,62.7,53.9,49.7,59.4,52.9,49.8,100,96,79,30.07,29.97,10,6,16,0.00
2013-8-6,62.5,54.0,49.7,58.6,52.9,49.8,100,96,79,30.07,29.99,13,7,21,0.00
2013-8-7,62.2,55.0,51.5,58.4,54.5,51.6,100,98,85,30.14,30.05,12,7,20,0.00
2013-8-8,65.2,56.3,51.5,61.4,55.0,51.6,100,95,76,30.06,29.97,11,6,20,0.01
2013-8-9,63.8,54.7,50.6,58.8,54.0,50.7,100,97,81,30.01,29.94,11,6,19,0.00
2013-8-10,66.2,56.7,52.3,60.3,55.4,52.4,100,95,77,30.10,30.01,10,5,18,0.00
2013-8-11,67.3,55.9,52.4,63.6,55.1,52.5,100,97,75,30.07,29.97,8,4,12,0.00
2013-8-12,70.6,58.8,52.2,60.3,54.9,51.5,100,88,61,30.05,29.97,8,4,14,0.00
2013-8-13,78.2,63.1,51.8,63.8,56.1,51.6,100,80,49,30.04,29.96,10,2,16,0.00
2013-8-14,74.2,61.4,52.1,62.4,56.4,51.5,100,85,60,30.04,29.94,8,2,15,0.00
2013-8-15,76.0,64.5,57.7,66.1,61.6,57.6,100,91,71,30.03,29.94,9,3,15,0.00
2013-8-16,76.1,65.0,55.4,65.4,60.0,54.5,100,86,56,30.05,29.97,9,2,15,0.01
2013-8-17,73.5,61.3,55.1,62.9,57.7,53.9,100,88,67,30.05,29.91,7,1,13,0.00
2013-8-18,87.1,71.7,55.9,67.2,60.7,55.8,100,72,43,29.95,29.84,6,2,10,0.01
2013-8-19,79.8,72.3,56.7,64.4,58.5,53.1,97,62,47,29.96,29.85,12,4,23,0.00
2013-8-20,69.8,58.5,53.6,61.3,56.7,53.8,100,94,72,29.95,29.87,14,7,22,0.00
2013-8-21,65.9,56.8,52.8,58.3,55.0,53.0,100,94,74,29.99,29.90,12,8,20,0.00
2013-8-22,65.8,56.9,52.9,57.8,54.6,53.1,100,92,73,30.01,29.92,12,7,22,0.00
2013-8-23,67.6,57.3,52.1,58.7,55.0,52.2,100,92,71,29.98,29.85,8,4,14,0.00
2013-8-24,71.1,60.3,53.8,61.1,57.1,53.8,100,90,68,29.96,29.87,9,3,15,0.00
2013-8-25,70.8,61.5,57.2,64.3,60.0,57.1,100,95,79,30.01,29.92,12,4,20,0.00
2013-8-26,71.2,60.7,55.4,61.2,57.1,53.5,100,88,65,30.06,29.93,9,4,14,0.00
2013-8-27,72.6,61.8,55.0,62.0,57.2,51.3,100,85,61,29.95,29.86,9,3,16,0.00
2013-8-28,73.5,61.6,55.9,64.9,59.6,56.1,100,94,74,29.99,29.89,12,4,18,0.00
2013-8-29,73.5,63.2,57.1,67.0,60.9,57.3,100,93,73,30.12,29.97,8,4,13,0.00
2013-8-30,81.0,69.5,60.2,66.3,61.3,55.1,97,77,53,30.10,29.96,8,2,13,0.01
2013-8-31,72.0,63.6,56.1,61.0,57.5,54.0,100,81,64,30.03,29.93,10,3,17,0.00
2013-9-1,72.7,61.3,54.7,61.2,58.2,54.8,100,90,64,30.00,29.92,8,3,15,0.00
2013-9-2,70.4,62.8,58.9,64.2,61.1,57.9,100,94,79,30.02,29.93,10,4,19,0.00
2013-9-3,70.0,61.4,55.4,60.7,57.9,55.6,100,89,60,30.06,29.96,12,3,21,0.01
2013-9-4,73.3,61.9,55.5,61.5,58.3,55.5,100,89,61,30.07,29.97,9,3,18,0.00
2013-9-5,74.2,62.8,55.1,60.0,56.9,54.2,100,82,55,30.07,29.98,10,3,18,0.00
2013-9-6,89.1,71.8,56.9,57.7,53.4,48.2,92,57,27,30.03,29.88,7,2,17,0.00
2013-9-7,86.7,76.9,68.1,59.6,51.2,46.7,54,41,27,29.95,29.86,8,2,14,0.00
2013-9-8,85.0,72.7,62.8,64.4,55.8,44.2,79,57,30,29.93,29.81,6,2,10,0.00
2013-9-9,83.3,69.5,58.8,63.6,56.2,46.8,91,63,39,29.88,29.76,6,1,9,0.00
2013-9-10,65.9,59.6,54.5,62.8,57.9,54.7,100,94,79,29.92,29.78,17,8,28,0.00
2013-9-11,66.0,59.9,57.1,59.8,57.8,56.2,100,93,79,30.04,29.92,12,7,21,0.00
2013-9-12,68.8,59.7,56.0,64.5,58.7,56.2,100,96,79,30.02,29.93,8,4,18,0.00
2013-9-13,69.3,58.2,54.0,63.6,56.4,54.2,100,94,73,29.95,29.81,9,2,13,0.00
2013-9-14,67.4,57.0,52.8,60.8,55.6,53.0,100,95,77,29.87,29.79,6,2,13,0.00
2013-9-15,71.0,59.5,52.8,60.1,56.5,53.0,100,90,67,29.93,29.81,8,3,16,0.00
2013-9-16,72.9,61.8,55.2,62.0,58.2,54.5,100,89,61,29.95,29.82,8,2,15,0.00
2013-9-17,67.4,59.8,53.6,56.8,54.8,52.0,100,84,64,29.93,29.85,14,4,25,0.00
2013-9-18,72.6,65.0,56.6,57.0,49.5,41.7,82,58,40,29.97,29.87,10,3,19,0.00
2013-9-19,80.1,68.7,61.2,58.5,48.7,41.2,65,50,33,29.91,29.81,7,2,13,0.00
2013-9-20,64.0,62.9,62.1,61.3,60.2,59.5,94,91,88,29.89,29.86,12,7,21,0.00
2013-9-21,60.2,56.8,53.7,58.7,56.5,53.8,100,98,87,29.92,29.84,10,4,22,0.43
2013-9-22,66.2,57.5,51.0,57.3,53.8,51.1,100,88,68,30.04,29.92,10,4,19,0.01
2013-9-23,74.5,62.7,55.4,61.8,55.3,50.4,90,77,59,30.08,29.97,8,3,16,0.00
2013-9-24,68.1,59.8,53.9,58.0,54.0,48.4,94,81,62,30.05,29.92,16,5,28,0.00
2013-9-25,63.6,55.9,51.7,49.9,47.0,44.3,87,73,54,29.98,29.84,14,7,25,0.00
2013-9-26,68.3,58.8,51.3,46.6,40.8,34.8,76,54,37,30.00,29.85,10,4,19,0.00
2013-9-27,71.3,63.7,58.7,43.8,37.2,29.9,49,39,30,30.15,30.01,10,3,18,0.00
2013-9-28,74.8,64.6,55.7,54.8,40.5,29.6,95,46,30,30.13,30.03,9,2,15,0.00
2013-9-29,69.0,59.7,54.1,61.3,57.3,53.4,100,92,73,30.16,30.08,10,3,16,0.00
2013-9-30,66.9,60.3,54.6,64.1,59.2,45.7,100,96,72,30.11,30.00,9,4,15,0.06
2013-10-1,66.7,57.7,49.6,53.5,49.6,44.4,95,75,59,30.06,29.95,7,2,13,0.00
2013-10-2,67.4,59.7,54.1,56.5,49.3,41.2,83,69,52,30.06,29.95,10,3,17,0.00
2013-10-3,70.2,60.2,51.1,43.1,35.5,27.1,67,44,22,30.11,29.96,16,5,42,0.00
2013-10-4,75.1,66.4,57.6,32.1,28.8,26.0,35,26,19,30.14,29.97,19,5,43,0.00
2013-10-5,82.0,69.2,59.0,36.4,28.9,24.0,30,24,17,30.25,30.12,6,2,15,0.00
2013-10-6,81.9,70.4,63.0,46.3,33.1,25.6,35,27,19,30.16,30.02,8,2,15,0.00
2013-10-7,74.7,67.5,58.2,46.8,34.9,24.1,60,32,19,30.04,29.91,6,2,13,0.00
2013-10-8,66.9,58.8,50.6,51.4,45.0,39.1,87,62,46,29.95,29.73,8,2,14,0.00
2013-10-9,62.5,54.7,46.3,49.9,45.3,36.6,96,74,40,29.79,29.65,8,3,15,0.00
2013-10-10,61.8,55.7,47.9,51.9,45.8,36.1,99,72,42,30.02,29.78,9,3,15,0.00
2013-10-11,60.5,51.8,47.6,52.0,47.8,43.3,100,87,68,30.11,29.99,7,2,11,0.00
2013-10-12,63.2,53.0,48.3,53.1,47.1,41.9,94,81,62,30.03,29.92,8,2,13,0.00
2013-10-13,65.7,56.6,50.1,52.6,46.0,36.1,89,70,41,30.08,29.93,9,2,20,0.00
2013-10-14,75.2,64.5,55.9,42.5,38.6,35.6,54,40,27,30.16,30.03,6,1,15,0.00
2013-10-15,76.3,66.2,57.4,38.3,34.2,30.7,42,33,22,30.08,29.98,8,2,22,0.00
2013-10-16,77.4,67.7,60.4,44.5,33.5,26.8,35,30,24,30.14,30.02,8,2,18,0.00
2013-10-17,76.2,67.7,63.1,46.6,34.3,24.8,39,30,23,30.13,30.00,7,3,15,0.00
2013-10-18,76.0,67.3,60.7,55.5,38.6,25.5,58,37,24,30.10,30.00,5,1,8,0.00
2013-10-19,67.7,65.7,63.2,43.0,41.3,38.9,45,42,37,30.05,30.04,1,0,3,0.00
2013-10-26,78.8,70.3,62.2,57.3,47.5,36.9,72,46,33,30.18,30.04,2,0,13,0.00
2013-10-27,64.3,50.7,46.1,50.2,45.9,34.6,100,87,35,30.04,29.68,10,4,34,0.00
2013-10-28,56.4,49.6,45.3,48.7,46.2,43.2,96,89,71,29.85,29.68,5,2,18,0.00
2013-10-29,55.4,50.2,47.1,48.9,47.1,43.9,98,90,74,30.05,29.85,4,1,13,0.00
2013-10-30,60.1,52.3,46.5,51.7,47.1,43.1,98,84,66,30.18,30.05,4,1,14,0.00
2013-10-31,66.7,58.1,50.9,50.7,45.0,38.6,74,63,52,30.20,30.09,3,0,10,0.00
2013-11-1,72.2,61.9,52.8,48.7,45.3,42.8,72,56,42,30.18,30.03,4,1,15,0.00
2013-11-2,65.5,58.3,51.6,52.3,48.2,44.1,92,70,55,30.05,29.92,4,1,12,0.00
2013-11-3,59.4,53.2,50.5,44.6,32.9,22.3,78,50,32,30.07,29.93,4,2,18,0.00
2013-11-4,65.9,55.5,46.6,34.9,29.4,23.8,61,40,22,30.08,29.91,4,2,17,0.00
2013-11-5,69.4,59.5,52.0,39.7,33.7,29.3,46,40,30,30.23,30.06,5,1,20,0.00
2013-11-6,67.4,60.8,55.3,40.7,36.4,31.5,49,42,37,30.28,30.17,4,1,14,0.00
2013-11-7,68.3,60.5,54.0,48.5,40.4,34.9,79,50,39,30.20,30.08,4,1,13,0.00
2013-11-8,66.8,57.7,52.1,53.7,47.3,27.4,85,70,37,30.11,29.98,3,1,12,0.00
2013-11-9,69.5,58.1,49.0,52.9,46.2,27.2,97,66,37,30.06,29.98,5,1,18,0.00
2013-11-10,59.4,51.5,47.7,52.3,48.5,44.0,100,90,70,30.15,30.03,5,2,15,0.00
2013-11-11,59.6,49.6,45.7,53.0,47.8,45.7,100,95,65,30.18,30.07,3,1,12,0.00
2013-11-12,70.1,59.8,53.6,52.9,47.6,39.4,81,65,38,30.29,30.16,4,1,12,0.00
2013-11-13,70.0,61.8,52.8,56.4,49.0,41.8,86,64,42,30.27,30.11,3,1,8,0.00
2013-11-14,60.0,52.4,47.6,54.5,49.2,39.6,100,89,67,30.12,29.88,5,1,18,0.00
2013-11-15,57.6,51.3,46.7,44.3,40.3,35.8,91,68,55,29.88,29.75,5,2,19,0.00
2013-11-16,54.2,47.4,32.0,47.8,45.0,32.0,98,92,65,29.93,29.77,5,1,18,0.00
2013-11-17,57.3,50.3,45.8,48.7,46.7,43.2,100,89,69,30.11,29.93,2,0,9,0.00
2013-11-18,52.8,48.0,44.0,47.5,45.5,41.4,99,92,81,30.16,30.08,4,2,17,0.00
2013-11-19,55.2,51.9,47.7,53.7,50.6,45.9,100,95,87,30.10,29.96,2,0,8,0.67
2013-11-20,54.8,52.7,48.7,55.0,52.8,48.7,100,100,100,29.96,29.86,5,1,15,0.60
2013-11-21,58.1,51.3,44.6,49.2,37.3,19.7,100,67,28,29.99,29.89,17,4,43,0.07
2013-11-22,64.6,56.5,51.2,24.0,17.5,12.1,35,22,14,30.02,29.91,18,9,39,0.00
2013-11-23,62.6,52.6,47.6,47.3,32.8,22.9,92,52,30,30.10,29.95,12,3,31,0.00
2013-11-24,58.1,51.6,45.8,47.9,42.1,30.0,96,73,45,30.24,30.10,5,1,11,0.00
2013-11-25,60.0,52.1,46.1,46.6,42.0,37.2,83,70,61,30.33,30.24,15,6,15,0.00
2013-11-26,57.7,51.5,47.6,43.7,40.9,35.9,77,69,56,30.25,30.03,19,10,21,0.00
2013-11-27,57.3,51.7,47.1,47.0,44.0,41.2,85,76,67,30.03,29.87,17,7,17,0.00
2013-11-28,66.9,57.4,50.8,47.0,40.9,38.6,69,56,42,30.08,29.88,15,3,15,0.00
2013-11-29,66.8,58.1,52.8,49.4,42.5,37.9,66,58,49,30.21,30.08,8,1,13,0.00
2013-11-30,65.7,57.2,51.4,52.0,44.7,40.9,74,64,50,30.28,30.20,3,0,7,0.00
2013-12-1,69.0,60.8,54.3,51.1,43.8,39.4,65,55,45,30.35,30.23,6,1,12,0.00
2013-12-2,58.7,54.2,50.2,51.5,47.3,42.9,100,79,58,30.23,29.97,10,2,20,0.00
2013-12-3,51.6,45.8,42.5,51.7,34.8,21.1,100,69,42,29.96,29.85,13,5,24,0.00
2013-12-4,46.7,41.0,36.9,24.8,19.3,14.1,52,41,33,30.07,29.93,9,3,20,0.00
2013-12-5,46.6,39.0,32.7,31.2,19.6,12.6,76,46,30,30.15,30.04,6,1,14,0.00
2013-12-6,45.8,40.3,35.1,45.5,33.8,27.7,99,80,57,30.19,29.90,13,2,25,0.48
2013-12-7,43.5,37.9,33.8,43.1,30.7,24.8,100,78,55,30.17,29.91,16,6,28,0.01
2013-12-8,40.1,33.7,28.7,28.1,22.1,16.5,85,63,45,30.30,30.17,9,3,26,0.00
2013-12-9,45.8,36.8,30.9,24.2,17.9,14.8,65,45,31,30.37,30.24,13,4,33,0.00
2013-12-10,49.6,40.7,33.6,28.0,23.9,17.9,75,54,34,30.36,30.18,12,4,24,0.00
2013-12-11,51.3,44.2,36.6,30.0,26.0,20.1,70,51,40,30.24,30.16,11,4,18,0.00
2013-12-12,57.0,47.1,41.8,39.9,32.0,27.6,76,59,41,30.27,30.16,13,4,25,0.00
2013-12-13,59.0,49.2,42.0,43.6,34.8,30.5,86,61,37,30.33,30.21,5,0,10,0.00
2013-12-14,57.7,51.5,46.9,36.1,31.8,22.2,63,50,32,30.39,30.29,10,3,19,0.00
2013-12-15,58.6,51.9,46.3,37.8,32.3,26.6,65,50,37,30.35,30.22,15,7,21,0.00
2013-12-16,61.9,57.1,52.3,34.0,31.0,27.4,51,39,32,30.24,30.13,22,12,24,0.00
2013-12-17,60.5,56.7,52.2,39.8,34.1,27.7,57,45,32,30.19,30.03,25,12,25,0.00
2013-12-18,59.1,52.0,44.9,46.8,38.5,28.8,96,66,34,30.04,29.76,20,7,20,0.00
2013-12-19,56.4,47.0,41.1,43.7,31.7,16.6,96,61,30,29.94,29.72,25,8,25,0.00
2013-12-20,56.8,49.7,43.6,29.4,20.1,10.1,45,31,20,30.03,29.92,11,3,18,0.00
2013-12-21,58.9,52.5,45.6,49.4,43.6,27.1,91,74,44,30.09,29.96,19,4,19,0.00
2013-12-22,59.4,54.6,49.5,42.0,36.9,34.0,64,54,47,30.28,30.08,23,6,29,0.00
2013-12-23,57.9,54.0,49.0,42.3,38.5,35.3,65,58,51,30.40,30.27,16,5,16,0.00
2013-12-24,64.8,56.8,50.5,44.1,38.9,33.8,64,53,45,30.33,30.21,11,3,14,0.00
2013-12-25,58.6,54.7,47.3,41.9,36.6,30.3,73,53,40,30.30,30.20,20,9,27,0.00
2013-12-26,60.7,56.8,53.2,37.1,33.5,28.9,54,44,35,30.27,30.17,21,11,22,0.00
2013-12-27,60.2,54.0,50.3,41.6,35.0,28.7,64,51,41,30.24,30.11,12,2,14,0.00
2013-12-28,64.9,56.2,46.1,39.6,29.1,21.7,56,38,24,30.16,30.04,11,2,17,0.00
2013-12-29,62.2,54.8,49.1,29.7,22.4,18.5,49,30,22,30.19,30.08,15,4,32,0.00
2013-12-30,63.4,52.6,45.6,43.4,35.1,30.3,64,54,38,30.26,30.16,14,1,19,0.00
2013-12-31,60.4,53.4,48.4,37.8,31.5,26.4,60,46,33,30.27,30.15,8,2,15,0.00
2014-1-1,63.9,57.5,51.9,32.5,28.4,25.6,40,35,28,30.22,30.13,6,1,11,0.00
2014-1-2,61.9,56.8,51.4,35.8,32.2,28.0,52,42,35,30.19,30.06,16,6,22,0.00